sensor_id;sensor_type;location;lat;lon;timestamp;P1;durP1;ratioP1;P2;durP2;ratioP2
18503;SDS011;9381;54.244;10.074;2023-01-24T00:01:56;32.10;;;18.00;;
18503;SDS011;9381;54.244;10.074;2023-01-24T00:06:56;33.50;;;18.98;;
18503;SDS011;9381;54.244;10.074;2023-01-24T00:11:56;34.50;;;18.17;;
18503;SDS011;9381;54.244;10.074;2023-01-24T00:16:57;33.97;;;18.90;;
18503;SDS011;9381;54.244;10.074;2023-01-24T00:21:57;34.67;;;17.83;;
18503;SDS011;9381;54.244;10.074;2023-01-24T00:26:57;29.77;;;16.65;;
18503;SDS011;9381;54.244;10.074;2023-01-24T00:31:58;30.30;;;18.08;;
18503;SDS011;9381;54.244;10.074;2023-01-24T00:36:58;31.90;;;17.77;;
18503;SDS011;9381;54.244;10.074;2023-01-24T00:41:58;35.17;;;19.38;;
18503;SDS011;9381;54.244;10.074;2023-01-24T00:46:58;41.73;;;21.80;;
18503;SDS011;9381;54.244;10.074;2023-01-24T00:51:59;29.52;;;17.52;;
18503;SDS011;9381;54.244;10.074;2023-01-24T00:56:59;31.60;;;18.27;;
18503;SDS011;9381;54.244;10.074;2023-01-24T01:01:59;30.88;;;18.20;;
18503;SDS011;9381;54.244;10.074;2023-01-24T01:07:00;34.53;;;18.47;;
18503;SDS011;9381;54.244;10.074;2023-01-24T01:12:00;27.17;;;16.93;;
18503;SDS011;9381;54.244;10.074;2023-01-24T01:17:00;26.63;;;15.52;;
18503;SDS011;9381;54.244;10.074;2023-01-24T01:22:01;27.83;;;15.73;;
18503;SDS011;9381;54.244;10.074;2023-01-24T01:27:01;24.97;;;16.00;;
18503;SDS011;9381;54.244;10.074;2023-01-24T01:32:02;29.70;;;16.17;;
18503;SDS011;9381;54.244;10.074;2023-01-24T01:37:02;27.63;;;15.40;;
18503;SDS011;9381;54.244;10.074;2023-01-24T01:42:03;25.03;;;14.80;;
18503;SDS011;9381;54.244;10.074;2023-01-24T01:47:04;28.57;;;15.30;;
18503;SDS011;9381;54.244;10.074;2023-01-24T01:52:13;26.77;;;13.37;;
18503;SDS011;9381;54.244;10.074;2023-01-24T01:57:15;24.00;;;13.93;;
18503;SDS011;9381;54.244;10.074;2023-01-24T02:02:20;23.13;;;13.90;;
18503;SDS011;9381;54.244;10.074;2023-01-24T02:07:23;24.10;;;13.33;;
18503;SDS011;9381;54.244;10.074;2023-01-24T02:12:39;21.77;;;12.63;;
18503;SDS011;9381;54.244;10.074;2023-01-24T02:17:42;15.47;;;9.77;;
18503;SDS011;9381;54.244;10.074;2023-01-24T02:28:09;17.57;;;10.63;;
18503;SDS011;9381;54.244;10.074;2023-01-24T02:33:11;17.90;;;10.90;;
18503;SDS011;9381;54.244;10.074;2023-01-24T02:38:20;15.53;;;10.50;;
18503;SDS011;9381;54.244;10.074;2023-01-24T02:43:24;18.60;;;12.10;;
18503;SDS011;9381;54.244;10.074;2023-01-24T02:48:28;17.33;;;11.20;;
18503;SDS011;9381;54.244;10.074;2023-01-24T02:53:29;17.07;;;11.50;;
18503;SDS011;9381;54.244;10.074;2023-01-24T02:58:29;24.07;;;13.40;;
18503;SDS011;9381;54.244;10.074;2023-01-24T03:03:29;18.95;;;12.95;;
18503;SDS011;9381;54.244;10.074;2023-01-24T03:08:30;21.55;;;13.05;;
18503;SDS011;9381;54.244;10.074;2023-01-24T03:13:32;21.43;;;12.73;;
18503;SDS011;9381;54.244;10.074;2023-01-24T03:18:52;23.07;;;12.40;;
18503;SDS011;9381;54.244;10.074;2023-01-24T03:24:11;20.77;;;12.27;;
18503;SDS011;9381;54.244;10.074;2023-01-24T03:29:30;18.93;;;11.70;;
18503;SDS011;9381;54.244;10.074;2023-01-24T03:34:49;16.87;;;10.80;;
18503;SDS011;9381;54.244;10.074;2023-01-24T03:39:50;15.33;;;10.10;;
18503;SDS011;9381;54.244;10.074;2023-01-24T03:45:00;15.90;;;9.77;;
18503;SDS011;9381;54.244;10.074;2023-01-24T03:50:00;11.97;;;9.20;;
18503;SDS011;9381;54.244;10.074;2023-01-24T03:55:20;12.70;;;8.87;;
18503;SDS011;9381;54.244;10.074;2023-01-24T04:00:20;12.57;;;8.87;;
18503;SDS011;9381;54.244;10.074;2023-01-24T04:05:21;11.80;;;9.17;;
18503;SDS011;9381;54.244;10.074;2023-01-24T04:10:22;11.53;;;7.83;;
18503;SDS011;9381;54.244;10.074;2023-01-24T04:15:23;16.60;;;9.00;;
18503;SDS011;9381;54.244;10.074;2023-01-24T04:20:26;13.87;;;9.40;;
18503;SDS011;9381;54.244;10.074;2023-01-24T04:25:28;14.57;;;8.90;;
18503;SDS011;9381;54.244;10.074;2023-01-24T04:30:29;15.27;;;9.63;;
18503;SDS011;9381;54.244;10.074;2023-01-24T04:35:29;16.03;;;10.13;;
18503;SDS011;9381;54.244;10.074;2023-01-24T04:40:29;16.33;;;9.93;;
18503;SDS011;9381;54.244;10.074;2023-01-24T04:45:30;14.13;;;9.13;;
18503;SDS011;9381;54.244;10.074;2023-01-24T04:50:30;13.90;;;9.88;;
18503;SDS011;9381;54.244;10.074;2023-01-24T04:55:30;14.48;;;10.18;;
18503;SDS011;9381;54.244;10.074;2023-01-24T05:00:31;16.48;;;9.75;;
18503;SDS011;9381;54.244;10.074;2023-01-24T05:05:31;15.30;;;10.32;;
18503;SDS011;9381;54.244;10.074;2023-01-24T05:10:31;12.87;;;8.70;;
18503;SDS011;9381;54.244;10.074;2023-01-24T05:15:32;16.43;;;11.47;;
18503;SDS011;9381;54.244;10.074;2023-01-24T05:20:32;13.47;;;9.50;;
18503;SDS011;9381;54.244;10.074;2023-01-24T05:25:32;13.82;;;9.38;;
18503;SDS011;9381;54.244;10.074;2023-01-24T05:30:33;14.13;;;9.95;;
18503;SDS011;9381;54.244;10.074;2023-01-24T05:35:33;13.95;;;9.15;;
18503;SDS011;9381;54.244;10.074;2023-01-24T05:40:33;16.77;;;10.13;;
18503;SDS011;9381;54.244;10.074;2023-01-24T05:45:34;16.02;;;9.93;;
18503;SDS011;9381;54.244;10.074;2023-01-24T05:50:34;16.67;;;10.80;;
18503;SDS011;9381;54.244;10.074;2023-01-24T05:55:34;13.07;;;9.43;;
18503;SDS011;9381;54.244;10.074;2023-01-24T06:00:34;13.55;;;9.38;;
18503;SDS011;9381;54.244;10.074;2023-01-24T06:05:35;16.27;;;10.55;;
18503;SDS011;9381;54.244;10.074;2023-01-24T06:10:35;15.30;;;10.25;;
18503;SDS011;9381;54.244;10.074;2023-01-24T06:15:35;15.20;;;9.35;;
18503;SDS011;9381;54.244;10.074;2023-01-24T06:20:36;16.40;;;10.23;;
18503;SDS011;9381;54.244;10.074;2023-01-24T06:25:37;14.80;;;9.90;;
18503;SDS011;9381;54.244;10.074;2023-01-24T06:30:37;14.73;;;8.97;;
18503;SDS011;9381;54.244;10.074;2023-01-24T06:41:09;14.33;;;9.33;;
18503;SDS011;9381;54.244;10.074;2023-01-24T06:46:14;11.63;;;7.77;;
18503;SDS011;9381;54.244;10.074;2023-01-24T06:51:14;13.37;;;8.43;;
18503;SDS011;9381;54.244;10.074;2023-01-24T06:56:15;12.37;;;8.07;;
18503;SDS011;9381;54.244;10.074;2023-01-24T07:01:15;12.73;;;9.55;;
18503;SDS011;9381;54.244;10.074;2023-01-24T07:06:15;16.27;;;10.53;;
18503;SDS011;9381;54.244;10.074;2023-01-24T07:11:16;14.85;;;10.05;;
18503;SDS011;9381;54.244;10.074;2023-01-24T07:16:16;13.57;;;9.80;;
18503;SDS011;9381;54.244;10.074;2023-01-24T07:21:16;11.10;;;8.40;;
18503;SDS011;9381;54.244;10.074;2023-01-24T07:26:17;14.70;;;9.57;;
18503;SDS011;9381;54.244;10.074;2023-01-24T07:31:18;15.73;;;10.80;;
18503;SDS011;9381;54.244;10.074;2023-01-24T07:36:18;15.70;;;10.67;;
18503;SDS011;9381;54.244;10.074;2023-01-24T07:41:18;14.85;;;10.50;;
18503;SDS011;9381;54.244;10.074;2023-01-24T07:46:19;14.60;;;9.70;;
18503;SDS011;9381;54.244;10.074;2023-01-24T07:51:20;16.97;;;9.70;;
18503;SDS011;9381;54.244;10.074;2023-01-24T07:56:20;15.60;;;10.63;;
18503;SDS011;9381;54.244;10.074;2023-01-24T08:01:21;18.40;;;11.00;;
18503;SDS011;9381;54.244;10.074;2023-01-24T08:06:23;15.73;;;9.90;;
18503;SDS011;9381;54.244;10.074;2023-01-24T08:11:24;15.90;;;10.93;;
18503;SDS011;9381;54.244;10.074;2023-01-24T08:16:25;16.53;;;10.23;;
18503;SDS011;9381;54.244;10.074;2023-01-24T08:21:26;16.37;;;10.27;;
18503;SDS011;9381;54.244;10.074;2023-01-24T08:26:26;17.80;;;11.50;;
18503;SDS011;9381;54.244;10.074;2023-01-24T08:31:27;15.93;;;11.13;;
18503;SDS011;9381;54.244;10.074;2023-01-24T08:36:27;15.55;;;10.60;;
18503;SDS011;9381;54.244;10.074;2023-01-24T08:41:27;16.23;;;10.93;;
18503;SDS011;9381;54.244;10.074;2023-01-24T08:46:28;17.25;;;10.98;;
18503;SDS011;9381;54.244;10.074;2023-01-24T08:51:29;15.30;;;10.60;;
18503;SDS011;9381;54.244;10.074;2023-01-24T08:56:30;12.37;;;9.70;;
18503;SDS011;9381;54.244;10.074;2023-01-24T09:01:30;15.53;;;10.10;;
18503;SDS011;9381;54.244;10.074;2023-01-24T09:06:33;15.77;;;10.00;;
18503;SDS011;9381;54.244;10.074;2023-01-24T09:11:33;17.83;;;11.30;;
18503;SDS011;9381;54.244;10.074;2023-01-24T09:16:33;17.10;;;10.97;;
18503;SDS011;9381;54.244;10.074;2023-01-24T09:21:34;15.57;;;10.03;;
18503;SDS011;9381;54.244;10.074;2023-01-24T09:26:34;15.18;;;10.02;;
18503;SDS011;9381;54.244;10.074;2023-01-24T09:31:34;15.20;;;9.95;;
18503;SDS011;9381;54.244;10.074;2023-01-24T09:36:36;13.50;;;9.60;;
18503;SDS011;9381;54.244;10.074;2023-01-24T09:47:17;16.07;;;10.70;;
18503;SDS011;9381;54.244;10.074;2023-01-24T09:52:40;14.47;;;10.33;;
18503;SDS011;9381;54.244;10.074;2023-01-24T09:57:48;16.00;;;9.87;;
18503;SDS011;9381;54.244;10.074;2023-01-24T10:02:56;14.30;;;10.13;;
18503;SDS011;9381;54.244;10.074;2023-01-24T10:24:30;15.97;;;11.13;;
18503;SDS011;9381;54.244;10.074;2023-01-24T10:29:34;15.73;;;9.67;;
18503;SDS011;9381;54.244;10.074;2023-01-24T10:34:46;16.60;;;11.17;;
18503;SDS011;9381;54.244;10.074;2023-01-24T10:39:47;17.60;;;10.33;;
18503;SDS011;9381;54.244;10.074;2023-01-24T10:44:48;17.23;;;10.93;;
18503;SDS011;9381;54.244;10.074;2023-01-24T10:50:06;16.27;;;10.30;;
18503;SDS011;9381;54.244;10.074;2023-01-24T10:55:22;14.77;;;10.10;;
18503;SDS011;9381;54.244;10.074;2023-01-24T11:00:32;15.03;;;10.07;;
18503;SDS011;9381;54.244;10.074;2023-01-24T11:05:43;15.83;;;10.87;;
18503;SDS011;9381;54.244;10.074;2023-01-24T11:10:51;18.17;;;11.57;;
18503;SDS011;9381;54.244;10.074;2023-01-24T11:15:55;15.10;;;10.57;;
18503;SDS011;9381;54.244;10.074;2023-01-24T11:21:05;15.50;;;10.40;;
18503;SDS011;9381;54.244;10.074;2023-01-24T11:26:24;18.53;;;10.63;;
18503;SDS011;9381;54.244;10.074;2023-01-24T11:31:29;16.77;;;10.30;;
18503;SDS011;9381;54.244;10.074;2023-01-24T11:47:34;17.17;;;10.50;;
18503;SDS011;9381;54.244;10.074;2023-01-24T12:03:31;17.03;;;10.53;;
18503;SDS011;9381;54.244;10.074;2023-01-24T12:08:49;13.73;;;10.03;;
18503;SDS011;9381;54.244;10.074;2023-01-24T12:19:46;16.20;;;10.67;;
18503;SDS011;9381;54.244;10.074;2023-01-24T12:35:38;16.60;;;10.50;;
18503;SDS011;9381;54.244;10.074;2023-01-24T12:46:12;15.90;;;10.90;;
18503;SDS011;9381;54.244;10.074;2023-01-24T12:51:21;13.67;;;9.50;;
18503;SDS011;9381;54.244;10.074;2023-01-24T13:01:48;18.60;;;11.50;;
18503;SDS011;9381;54.244;10.074;2023-01-24T13:12:38;25.83;;;11.50;;
18503;SDS011;9381;54.244;10.074;2023-01-24T13:23:23;15.93;;;10.70;;
18503;SDS011;9381;54.244;10.074;2023-01-24T13:33:57;17.13;;;10.87;;
18503;SDS011;9381;54.244;10.074;2023-01-24T13:38:59;19.00;;;14.43;;
18503;SDS011;9381;54.244;10.074;2023-01-24T13:49:02;14.67;;;11.03;;
18503;SDS011;9381;54.244;10.074;2023-01-24T13:54:04;22.60;;;12.70;;
18503;SDS011;9381;54.244;10.074;2023-01-24T13:59:25;17.73;;;12.57;;
18503;SDS011;9381;54.244;10.074;2023-01-24T14:04:41;17.73;;;12.17;;
18503;SDS011;9381;54.244;10.074;2023-01-24T14:09:43;17.53;;;12.17;;
18503;SDS011;9381;54.244;10.074;2023-01-24T14:19:57;17.67;;;11.90;;
18503;SDS011;9381;54.244;10.074;2023-01-24T14:25:02;18.20;;;11.77;;
18503;SDS011;9381;54.244;10.074;2023-01-24T14:30:27;17.57;;;12.10;;
18503;SDS011;9381;54.244;10.074;2023-01-24T14:35:33;16.63;;;11.40;;
18503;SDS011;9381;54.244;10.074;2023-01-24T14:40:57;16.93;;;11.97;;
18503;SDS011;9381;54.244;10.074;2023-01-24T14:46:07;22.07;;;12.17;;
18503;SDS011;9381;54.244;10.074;2023-01-24T14:51:13;19.97;;;13.20;;
18503;SDS011;9381;54.244;10.074;2023-01-24T14:56:17;17.23;;;13.07;;
18503;SDS011;9381;54.244;10.074;2023-01-24T15:01:28;19.97;;;13.23;;
18503;SDS011;9381;54.244;10.074;2023-01-24T15:06:31;23.43;;;15.97;;
18503;SDS011;9381;54.244;10.074;2023-01-24T15:11:34;23.37;;;15.73;;
18503;SDS011;9381;54.244;10.074;2023-01-24T15:16:37;22.93;;;14.67;;
18503;SDS011;9381;54.244;10.074;2023-01-24T15:21:40;22.47;;;14.70;;
18503;SDS011;9381;54.244;10.074;2023-01-24T15:26:45;20.17;;;13.67;;
18503;SDS011;9381;54.244;10.074;2023-01-24T15:31:48;24.23;;;16.57;;
18503;SDS011;9381;54.244;10.074;2023-01-24T15:36:58;23.90;;;16.80;;
18503;SDS011;9381;54.244;10.074;2023-01-24T15:42:00;22.13;;;17.87;;
18503;SDS011;9381;54.244;10.074;2023-01-24T15:47:24;23.50;;;16.00;;
18503;SDS011;9381;54.244;10.074;2023-01-24T15:52:43;27.77;;;17.63;;
18503;SDS011;9381;54.244;10.074;2023-01-24T15:57:44;24.85;;;18.00;;
18503;SDS011;9381;54.244;10.074;2023-01-24T16:02:44;25.13;;;17.00;;
18503;SDS011;9381;54.244;10.074;2023-01-24T16:07:45;24.43;;;17.50;;
18503;SDS011;9381;54.244;10.074;2023-01-24T16:12:45;29.20;;;18.53;;
18503;SDS011;9381;54.244;10.074;2023-01-24T16:17:49;25.00;;;18.63;;
18503;SDS011;9381;54.244;10.074;2023-01-24T16:22:49;28.40;;;18.27;;
18503;SDS011;9381;54.244;10.074;2023-01-24T16:27:50;26.03;;;18.60;;
18503;SDS011;9381;54.244;10.074;2023-01-24T16:32:55;23.43;;;17.43;;
18503;SDS011;9381;54.244;10.074;2023-01-24T16:37:55;27.37;;;17.97;;
18503;SDS011;9381;54.244;10.074;2023-01-24T16:42:56;28.00;;;18.83;;
18503;SDS011;9381;54.244;10.074;2023-01-24T16:47:57;26.83;;;18.67;;
18503;SDS011;9381;54.244;10.074;2023-01-24T16:52:57;27.10;;;18.23;;
18503;SDS011;9381;54.244;10.074;2023-01-24T16:57:57;24.45;;;17.25;;
18503;SDS011;9381;54.244;10.074;2023-01-24T17:02:58;28.83;;;18.92;;
18503;SDS011;9381;54.244;10.074;2023-01-24T17:07:59;25.57;;;18.80;;
18503;SDS011;9381;54.244;10.074;2023-01-24T17:12:59;27.87;;;18.03;;
18503;SDS011;9381;54.244;10.074;2023-01-24T17:18:00;24.70;;;17.97;;
18503;SDS011;9381;54.244;10.074;2023-01-24T17:23:00;29.60;;;19.77;;
18503;SDS011;9381;54.244;10.074;2023-01-24T17:28:01;32.10;;;21.77;;
18503;SDS011;9381;54.244;10.074;2023-01-24T17:33:01;30.13;;;19.50;;
18503;SDS011;9381;54.244;10.074;2023-01-24T17:38:01;26.17;;;19.63;;
18503;SDS011;9381;54.244;10.074;2023-01-24T17:43:04;30.20;;;21.37;;
18503;SDS011;9381;54.244;10.074;2023-01-24T17:48:04;32.20;;;20.23;;
18503;SDS011;9381;54.244;10.074;2023-01-24T17:53:05;28.73;;;20.03;;
18503;SDS011;9381;54.244;10.074;2023-01-24T17:58:05;32.03;;;22.02;;
18503;SDS011;9381;54.244;10.074;2023-01-24T18:03:05;28.63;;;19.70;;
18503;SDS011;9381;54.244;10.074;2023-01-24T18:08:06;26.57;;;19.43;;
18503;SDS011;9381;54.244;10.074;2023-01-24T18:13:07;29.63;;;19.90;;
18503;SDS011;9381;54.244;10.074;2023-01-24T18:18:07;28.30;;;19.13;;
18503;SDS011;9381;54.244;10.074;2023-01-24T18:23:08;27.03;;;18.23;;
18503;SDS011;9381;54.244;10.074;2023-01-24T18:28:08;27.33;;;17.67;;
18503;SDS011;9381;54.244;10.074;2023-01-24T18:33:08;25.48;;;16.98;;
18503;SDS011;9381;54.244;10.074;2023-01-24T18:38:09;27.55;;;17.50;;
18503;SDS011;9381;54.244;10.074;2023-01-24T18:43:09;28.57;;;18.47;;
18503;SDS011;9381;54.244;10.074;2023-01-24T18:48:10;28.63;;;16.60;;
18503;SDS011;9381;54.244;10.074;2023-01-24T18:53:10;25.40;;;16.40;;
18503;SDS011;9381;54.244;10.074;2023-01-24T18:58:11;22.75;;;15.88;;
18503;SDS011;9381;54.244;10.074;2023-01-24T19:03:11;22.63;;;16.33;;
18503;SDS011;9381;54.244;10.074;2023-01-24T19:08:11;26.77;;;17.40;;
18503;SDS011;9381;54.244;10.074;2023-01-24T19:13:12;23.73;;;15.60;;
18503;SDS011;9381;54.244;10.074;2023-01-24T19:18:12;28.30;;;17.60;;
18503;SDS011;9381;54.244;10.074;2023-01-24T19:23:13;29.50;;;16.80;;
18503;SDS011;9381;54.244;10.074;2023-01-24T19:28:13;25.15;;;17.30;;
18503;SDS011;9381;54.244;10.074;2023-01-24T19:33:13;26.42;;;16.52;;
18503;SDS011;9381;54.244;10.074;2023-01-24T19:38:14;27.40;;;17.53;;
18503;SDS011;9381;54.244;10.074;2023-01-24T19:43:14;25.67;;;17.50;;
18503;SDS011;9381;54.244;10.074;2023-01-24T19:48:15;24.47;;;17.33;;
18503;SDS011;9381;54.244;10.074;2023-01-24T19:53:15;26.30;;;17.75;;
18503;SDS011;9381;54.244;10.074;2023-01-24T19:58:16;27.52;;;18.00;;
18503;SDS011;9381;54.244;10.074;2023-01-24T20:03:16;30.80;;;19.43;;
18503;SDS011;9381;54.244;10.074;2023-01-24T20:08:16;26.63;;;17.23;;
18503;SDS011;9381;54.244;10.074;2023-01-24T20:13:17;25.13;;;17.70;;
18503;SDS011;9381;54.244;10.074;2023-01-24T20:18:17;28.33;;;18.80;;
18503;SDS011;9381;54.244;10.074;2023-01-24T20:23:17;29.17;;;18.07;;
18503;SDS011;9381;54.244;10.074;2023-01-24T20:28:18;31.65;;;19.00;;
18503;SDS011;9381;54.244;10.074;2023-01-24T20:33:18;29.00;;;18.60;;
18503;SDS011;9381;54.244;10.074;2023-01-24T20:38:18;27.60;;;17.57;;
18503;SDS011;9381;54.244;10.074;2023-01-24T20:43:19;26.77;;;18.77;;
18503;SDS011;9381;54.244;10.074;2023-01-24T20:48:19;28.60;;;18.07;;
18503;SDS011;9381;54.244;10.074;2023-01-24T20:53:19;32.17;;;18.53;;
18503;SDS011;9381;54.244;10.074;2023-01-24T20:58:20;29.90;;;17.98;;
18503;SDS011;9381;54.244;10.074;2023-01-24T21:03:25;27.87;;;18.77;;
18503;SDS011;9381;54.244;10.074;2023-01-24T21:08:25;32.90;;;19.77;;
18503;SDS011;9381;54.244;10.074;2023-01-24T21:13:29;32.00;;;19.10;;
18503;SDS011;9381;54.244;10.074;2023-01-24T21:18:30;27.17;;;17.67;;
18503;SDS011;9381;54.244;10.074;2023-01-24T21:23:31;30.97;;;19.13;;
18503;SDS011;9381;54.244;10.074;2023-01-24T21:28:31;30.40;;;18.20;;
18503;SDS011;9381;54.244;10.074;2023-01-24T21:33:33;30.93;;;19.00;;
18503;SDS011;9381;54.244;10.074;2023-01-24T21:38:34;28.70;;;18.70;;
18503;SDS011;9381;54.244;10.074;2023-01-24T21:43:34;36.67;;;20.53;;
18503;SDS011;9381;54.244;10.074;2023-01-24T21:48:35;31.80;;;20.57;;
18503;SDS011;9381;54.244;10.074;2023-01-24T21:53:54;34.73;;;21.73;;
18503;SDS011;9381;54.244;10.074;2023-01-24T21:59:01;32.27;;;21.00;;
18503;SDS011;9381;54.244;10.074;2023-01-24T22:04:01;34.13;;;21.40;;
18503;SDS011;9381;54.244;10.074;2023-01-24T22:09:02;39.70;;;22.23;;
18503;SDS011;9381;54.244;10.074;2023-01-24T22:14:02;33.57;;;21.13;;
18503;SDS011;9381;54.244;10.074;2023-01-24T22:19:03;34.63;;;21.97;;
18503;SDS011;9381;54.244;10.074;2023-01-24T22:24:09;33.70;;;21.33;;
18503;SDS011;9381;54.244;10.074;2023-01-24T22:29:13;36.13;;;22.17;;
18503;SDS011;9381;54.244;10.074;2023-01-24T22:34:19;40.53;;;24.53;;
18503;SDS011;9381;54.244;10.074;2023-01-24T22:39:21;40.50;;;23.63;;
18503;SDS011;9381;54.244;10.074;2023-01-24T22:44:21;41.10;;;23.30;;
18503;SDS011;9381;54.244;10.074;2023-01-24T22:49:22;44.10;;;24.83;;
18503;SDS011;9381;54.244;10.074;2023-01-24T22:54:22;47.15;;;26.50;;
18503;SDS011;9381;54.244;10.074;2023-01-24T22:59:23;45.17;;;26.33;;
18503;SDS011;9381;54.244;10.074;2023-01-24T23:04:23;49.73;;;26.10;;
18503;SDS011;9381;54.244;10.074;2023-01-24T23:09:24;45.63;;;26.43;;
18503;SDS011;9381;54.244;10.074;2023-01-24T23:14:24;53.50;;;30.83;;
18503;SDS011;9381;54.244;10.074;2023-01-24T23:19:46;50.40;;;27.87;;
18503;SDS011;9381;54.244;10.074;2023-01-24T23:25:19;51.77;;;28.90;;
18503;SDS011;9381;54.244;10.074;2023-01-24T23:30:25;51.15;;;27.98;;
18503;SDS011;9381;54.244;10.074;2023-01-24T23:35:40;53.37;;;29.17;;
18503;SDS011;9381;54.244;10.074;2023-01-24T23:40:41;57.60;;;30.77;;
18503;SDS011;9381;54.244;10.074;2023-01-24T23:45:41;54.93;;;30.20;;
18503;SDS011;9381;54.244;10.074;2023-01-24T23:50:42;59.97;;;31.63;;
18503;SDS011;9381;54.244;10.074;2023-01-24T23:55:45;56.60;;;30.83;;
